createdAt,value
2024-02-08T00:04:41.811Z,2.60
2024-02-08T00:14:25.226Z,3.43
2024-02-08T00:24:07.267Z,1.97
2024-02-08T00:33:50.887Z,2.00
2024-02-08T00:43:33.122Z,3.70
2024-02-08T00:53:15.297Z,2.63
2024-02-08T01:03:00.452Z,7.37
2024-02-08T01:12:44.204Z,1.93
2024-02-08T01:22:26.115Z,2.20
2024-02-08T01:32:08.367Z,2.90
2024-02-08T01:41:52.050Z,2.43
2024-02-08T01:51:34.270Z,3.30
2024-02-08T02:01:16.399Z,3.00
2024-02-08T02:11:10.855Z,2.50
2024-02-08T02:20:55.703Z,3.13
2024-02-08T02:30:39.329Z,3.20
2024-02-08T02:40:24.757Z,3.20
2024-02-08T02:50:09.167Z,3.40
2024-02-08T02:59:51.519Z,3.50
2024-02-08T03:09:33.794Z,4.00
2024-02-08T03:19:17.502Z,3.97
2024-02-08T03:28:59.538Z,4.53
2024-02-08T03:38:43.740Z,7.63
2024-02-08T03:48:29.645Z,5.47
2024-02-08T03:58:15.615Z,4.90
2024-02-08T04:07:58.826Z,6.07
2024-02-08T04:18:00.383Z,4.50
2024-02-08T04:28:01.302Z,6.97
2024-02-08T04:38:01.855Z,5.13
2024-02-08T04:48:02.329Z,6.23
2024-02-08T04:57:45.117Z,6.70
2024-02-08T05:07:28.220Z,6.67
2024-02-08T05:17:12.751Z,7.17
2024-02-08T05:26:55.956Z,6.80
2024-02-08T05:36:40.801Z,6.77
2024-02-08T05:46:26.654Z,6.10
2024-02-08T05:56:10.570Z,7.00
2024-02-08T06:06:08.147Z,7.77
2024-02-08T06:15:54.963Z,8.07
2024-02-08T06:25:37.890Z,7.77
2024-02-08T06:35:27.263Z,8.23
2024-02-08T06:45:29.358Z,6.97
2024-02-08T06:55:44.030Z,7.37
2024-02-08T07:05:51.301Z,10.90
2024-02-08T07:15:51.905Z,10.53
2024-02-08T07:25:52.857Z,8.03
2024-02-08T07:35:53.292Z,7.17
2024-02-08T07:45:35.204Z,8.77
2024-02-08T07:55:22.134Z,8.17
2024-02-08T08:05:05.136Z,7.20
2024-02-08T08:14:47.138Z,7.17
2024-02-08T08:24:29.187Z,7.70
2024-02-08T08:34:29.746Z,7.13
2024-02-08T08:44:11.719Z,5.67
2024-02-08T08:54:16.185Z,5.70
2024-02-08T09:04:11.944Z,5.17
2024-02-08T09:13:56.054Z,4.50
2024-02-08T09:23:39.811Z,4.50
2024-02-08T09:33:47.243Z,5.57
2024-02-08T09:43:31.099Z,5.40
2024-02-08T09:53:21.065Z,4.80
2024-02-08T10:03:06.203Z,5.07
2024-02-08T10:13:07.265Z,4.33
2024-02-08T10:22:58.959Z,5.40
2024-02-08T10:33:07.313Z,4.93
2024-02-08T10:43:07.866Z,4.43
2024-02-08T11:13:46.965Z,9.80
2024-02-08T11:23:32.693Z,5.00
2024-02-08T11:33:15.737Z,4.10
2024-02-08T11:43:00.408Z,3.53
2024-02-08T11:52:43.911Z,4.20
2024-02-08T12:02:29.094Z,3.17
2024-02-08T12:12:11.494Z,3.10
2024-02-08T12:22:05.617Z,3.70
2024-02-08T12:31:50.289Z,3.57
2024-02-08T12:41:40.565Z,5.07
2024-02-08T12:51:26.840Z,3.90
2024-02-08T13:01:09.221Z,3.60
2024-02-08T13:10:58.209Z,3.40
2024-02-08T13:20:44.070Z,4.17
2024-02-08T13:30:31.448Z,3.97
2024-02-08T13:40:23.357Z,4.10
2024-02-08T13:50:14.991Z,4.27
2024-02-08T14:00:05.190Z,4.10
2024-02-08T14:10:08.103Z,4.37
2024-02-08T14:19:51.543Z,4.53
2024-02-08T14:29:39.702Z,3.73
2024-02-08T14:39:34.342Z,3.83
2024-02-08T14:49:27.732Z,3.33
2024-02-08T14:59:14.673Z,3.93
2024-02-08T15:09:07.452Z,3.33
2024-02-08T15:18:50.440Z,3.80
2024-02-08T15:28:37.246Z,4.97
2024-02-08T15:38:34.620Z,5.93
2024-02-08T15:48:19.709Z,6.03
2024-02-08T15:58:18.714Z,3.90
2024-02-08T16:08:07.698Z,5.10
2024-02-08T16:18:12.806Z,6.27
2024-02-08T16:27:57.948Z,5.73
2024-02-08T16:37:52.533Z,5.03
2024-02-08T16:47:43.261Z,7.50
2024-02-08T16:57:31.350Z,9.10
2024-02-08T17:07:21.829Z,4.87
2024-02-08T17:17:25.970Z,9.80
2024-02-08T17:27:28.226Z,6.30
2024-02-08T17:37:19.282Z,11.40
2024-02-08T17:47:01.790Z,8.50
2024-02-08T17:56:50.353Z,9.17
2024-02-08T18:06:33.726Z,15.90
2024-02-08T18:16:20.384Z,7.07
2024-02-08T18:26:05.886Z,6.93
2024-02-08T18:35:49.141Z,3.87
2024-02-08T18:45:38.640Z,4.67
2024-02-08T18:55:40.365Z,5.43
2024-02-08T19:05:25.335Z,3.30
2024-02-08T19:15:09.318Z,4.07
2024-02-08T19:24:55.217Z,3.53
2024-02-08T19:34:40.910Z,2.80
2024-02-08T19:44:27.276Z,2.83
2024-02-08T19:54:09.833Z,2.00
2024-02-08T20:03:57.296Z,2.93
2024-02-08T20:13:40.399Z,4.27
2024-02-08T20:23:33.811Z,4.50
2024-02-08T20:33:17.724Z,3.03
2024-02-08T20:43:01.008Z,2.70
2024-02-08T20:52:49.050Z,5.37
2024-02-08T21:02:32.931Z,5.93
2024-02-08T21:12:18.355Z,4.57
2024-02-08T21:22:01.934Z,6.23
2024-02-08T21:31:47.137Z,8.13
2024-02-08T21:41:29.161Z,5.43
2024-02-08T21:51:13.411Z,9.57
2024-02-08T22:10:56.341Z,8.80
2024-02-08T22:20:38.818Z,15.87
2024-02-08T22:30:20.700Z,9.37
2024-02-08T22:40:07.774Z,9.80
2024-02-08T22:49:49.816Z,10.53
2024-02-08T22:59:31.844Z,9.67
2024-02-08T23:09:17.357Z,9.27
2024-02-08T23:19:02.899Z,11.23
2024-02-08T23:28:48.626Z,8.80
2024-02-08T23:38:30.556Z,11.23
2024-02-08T23:48:12.742Z,11.47
2024-02-08T23:57:55.140Z,12.30
